sensor_id;sensor_type;location;lat;lon;timestamp;temperature;humidity
71254;HTU21D;59019;47.638;18.966;2023-06-14T00:00:31;10.09;99.20
71254;HTU21D;59019;47.638;18.966;2023-06-14T00:03:17;10.08;99.02
71254;HTU21D;59019;47.638;18.966;2023-06-14T00:06:03;10.00;99.08
71254;HTU21D;59019;47.638;18.966;2023-06-14T00:08:48;9.96;99.57
71254;HTU21D;59019;47.638;18.966;2023-06-14T00:11:35;9.94;99.52
71254;HTU21D;59019;47.638;18.966;2023-06-14T00:14:21;9.88;100.10
71254;HTU21D;59019;47.638;18.966;2023-06-14T00:17:06;9.82;101.00
71254;HTU21D;59019;47.638;18.966;2023-06-14T00:19:52;9.84;100.96
71254;HTU21D;59019;47.638;18.966;2023-06-14T00:22:39;9.86;100.55
71254;HTU21D;59019;47.638;18.966;2023-06-14T00:25:25;9.83;100.90
71254;HTU21D;59019;47.638;18.966;2023-06-14T00:28:11;9.83;101.41
71254;HTU21D;59019;47.638;18.966;2023-06-14T00:30:57;9.81;100.76
71254;HTU21D;59019;47.638;18.966;2023-06-14T00:33:43;9.76;100.45
71254;HTU21D;59019;47.638;18.966;2023-06-14T00:36:29;9.72;100.59
71254;HTU21D;59019;47.638;18.966;2023-06-14T00:39:15;9.70;100.67
71254;HTU21D;59019;47.638;18.966;2023-06-14T00:42:01;9.69;100.37
71254;HTU21D;59019;47.638;18.966;2023-06-14T00:44:47;9.74;100.64
71254;HTU21D;59019;47.638;18.966;2023-06-14T00:47:33;9.71;100.79
71254;HTU21D;59019;47.638;18.966;2023-06-14T00:50:21;9.74;100.93
71254;HTU21D;59019;47.638;18.966;2023-06-14T00:53:08;9.71;100.71
71254;HTU21D;59019;47.638;18.966;2023-06-14T00:55:54;9.66;101.40
71254;HTU21D;59019;47.638;18.966;2023-06-14T00:58:41;9.66;101.56
71254;HTU21D;59019;47.638;18.966;2023-06-14T01:01:28;9.66;102.09
71254;HTU21D;59019;47.638;18.966;2023-06-14T01:04:14;9.69;101.69
71254;HTU21D;59019;47.638;18.966;2023-06-14T01:07:09;9.71;101.60
71254;HTU21D;59019;47.638;18.966;2023-06-14T01:13:20;9.61;101.98
71254;HTU21D;59019;47.638;18.966;2023-06-14T01:16:07;9.64;101.64
71254;HTU21D;59019;47.638;18.966;2023-06-14T01:18:54;9.68;101.26
71254;HTU21D;59019;47.638;18.966;2023-06-14T01:21:42;9.65;101.22
71254;HTU21D;59019;47.638;18.966;2023-06-14T01:24:27;9.59;100.86
71254;HTU21D;59019;47.638;18.966;2023-06-14T01:27:17;9.56;100.52
71254;HTU21D;59019;47.638;18.966;2023-06-14T01:30:05;9.47;100.86
71254;HTU21D;59019;47.638;18.966;2023-06-14T01:32:52;9.44;100.89
71254;HTU21D;59019;47.638;18.966;2023-06-14T01:35:40;9.41;101.47
71254;HTU21D;59019;47.638;18.966;2023-06-14T01:38:27;9.38;102.42
71254;HTU21D;59019;47.638;18.966;2023-06-14T01:41:14;9.44;101.77
71254;HTU21D;59019;47.638;18.966;2023-06-14T01:44:01;9.46;101.34
71254;HTU21D;59019;47.638;18.966;2023-06-14T01:46:48;9.39;101.67
71254;HTU21D;59019;47.638;18.966;2023-06-14T01:49:34;9.37;102.08
71254;HTU21D;59019;47.638;18.966;2023-06-14T01:52:20;9.38;103.08
71254;HTU21D;59019;47.638;18.966;2023-06-14T01:55:08;9.38;102.60
71254;HTU21D;59019;47.638;18.966;2023-06-14T01:57:54;9.37;102.25
71254;HTU21D;59019;47.638;18.966;2023-06-14T02:00:40;9.31;103.05
71254;HTU21D;59019;47.638;18.966;2023-06-14T02:03:28;9.37;103.19
71254;HTU21D;59019;47.638;18.966;2023-06-14T02:06:15;9.33;103.40
71254;HTU21D;59019;47.638;18.966;2023-06-14T02:09:01;9.34;103.03
71254;HTU21D;59019;47.638;18.966;2023-06-14T02:11:48;9.32;102.54
71254;HTU21D;59019;47.638;18.966;2023-06-14T02:14:34;9.36;102.51
71254;HTU21D;59019;47.638;18.966;2023-06-14T02:17:20;9.44;101.92
71254;HTU21D;59019;47.638;18.966;2023-06-14T02:20:06;9.44;102.10
71254;HTU21D;59019;47.638;18.966;2023-06-14T02:22:54;9.40;101.92
71254;HTU21D;59019;47.638;18.966;2023-06-14T02:25:40;9.31;102.14
71254;HTU21D;59019;47.638;18.966;2023-06-14T02:28:26;9.25;102.29
71254;HTU21D;59019;47.638;18.966;2023-06-14T02:31:11;9.27;102.43
71254;HTU21D;59019;47.638;18.966;2023-06-14T02:33:57;9.24;102.55
71254;HTU21D;59019;47.638;18.966;2023-06-14T02:36:43;9.18;103.94
71254;HTU21D;59019;47.638;18.966;2023-06-14T02:39:29;9.22;103.92
71254;HTU21D;59019;47.638;18.966;2023-06-14T02:42:15;9.25;103.54
71254;HTU21D;59019;47.638;18.966;2023-06-14T02:45:01;9.25;102.70
71254;HTU21D;59019;47.638;18.966;2023-06-14T02:47:47;9.21;102.67
71254;HTU21D;59019;47.638;18.966;2023-06-14T02:50:33;9.14;104.47
71254;HTU21D;59019;47.638;18.966;2023-06-14T02:53:19;9.15;104.74
71254;HTU21D;59019;47.638;18.966;2023-06-14T02:56:05;9.18;104.32
71254;HTU21D;59019;47.638;18.966;2023-06-14T02:58:51;9.23;103.19
71254;HTU21D;59019;47.638;18.966;2023-06-14T03:01:39;9.29;102.15
71254;HTU21D;59019;47.638;18.966;2023-06-14T03:04:26;9.26;102.08
71254;HTU21D;59019;47.638;18.966;2023-06-14T03:07:12;9.29;102.35
71254;HTU21D;59019;47.638;18.966;2023-06-14T03:09:59;9.31;102.89
71254;HTU21D;59019;47.638;18.966;2023-06-14T03:12:45;9.35;105.80
71254;HTU21D;59019;47.638;18.966;2023-06-14T03:15:31;9.48;107.08
71254;HTU21D;59019;47.638;18.966;2023-06-14T03:18:19;9.51;104.37
71254;HTU21D;59019;47.638;18.966;2023-06-14T03:21:08;9.62;104.79
71254;HTU21D;59019;47.638;18.966;2023-06-14T03:23:54;9.68;102.99
71254;HTU21D;59019;47.638;18.966;2023-06-14T03:26:40;9.71;102.18
71254;HTU21D;59019;47.638;18.966;2023-06-14T03:29:26;9.69;101.35
71254;HTU21D;59019;47.638;18.966;2023-06-14T03:32:12;9.69;100.97
71254;HTU21D;59019;47.638;18.966;2023-06-14T03:34:58;9.68;101.97
71254;HTU21D;59019;47.638;18.966;2023-06-14T03:37:45;9.67;102.47
71254;HTU21D;59019;47.638;18.966;2023-06-14T03:40:31;9.67;103.03
71254;HTU21D;59019;47.638;18.966;2023-06-14T03:43:17;9.70;103.50
71254;HTU21D;59019;47.638;18.966;2023-06-14T03:46:03;9.74;103.22
71254;HTU21D;59019;47.638;18.966;2023-06-14T03:48:48;9.71;102.92
71254;HTU21D;59019;47.638;18.966;2023-06-14T03:51:34;9.81;103.02
71254;HTU21D;59019;47.638;18.966;2023-06-14T03:54:20;9.84;102.36
71254;HTU21D;59019;47.638;18.966;2023-06-14T03:57:07;9.92;102.02
71254;HTU21D;59019;47.638;18.966;2023-06-14T03:59:53;9.98;101.71
71254;HTU21D;59019;47.638;18.966;2023-06-14T04:02:38;10.20;101.80
71254;HTU21D;59019;47.638;18.966;2023-06-14T04:05:24;10.43;101.57
71254;HTU21D;59019;47.638;18.966;2023-06-14T04:08:12;10.71;101.08
71254;HTU21D;59019;47.638;18.966;2023-06-14T04:11:01;11.03;100.86
71254;HTU21D;59019;47.638;18.966;2023-06-14T04:13:47;11.37;100.51
71254;HTU21D;59019;47.638;18.966;2023-06-14T04:16:32;11.70;99.84
71254;HTU21D;59019;47.638;18.966;2023-06-14T04:19:18;12.02;98.93
71254;HTU21D;59019;47.638;18.966;2023-06-14T04:22:04;12.29;97.60
71254;HTU21D;59019;47.638;18.966;2023-06-14T04:24:50;12.66;96.68
71254;HTU21D;59019;47.638;18.966;2023-06-14T04:27:38;12.97;95.73
71254;HTU21D;59019;47.638;18.966;2023-06-14T04:30:24;13.33;94.76
71254;HTU21D;59019;47.638;18.966;2023-06-14T04:33:12;13.63;93.94
71254;HTU21D;59019;47.638;18.966;2023-06-14T04:35:59;13.97;93.09
71254;HTU21D;59019;47.638;18.966;2023-06-14T04:38:46;14.19;91.52
71254;HTU21D;59019;47.638;18.966;2023-06-14T04:41:32;14.39;90.61
71254;HTU21D;59019;47.638;18.966;2023-06-14T04:44:19;14.58;89.94
71254;HTU21D;59019;47.638;18.966;2023-06-14T04:47:05;14.82;90.02
71254;HTU21D;59019;47.638;18.966;2023-06-14T04:49:52;15.04;89.26
71254;HTU21D;59019;47.638;18.966;2023-06-14T04:52:39;15.31;89.31
71254;HTU21D;59019;47.638;18.966;2023-06-14T04:55:25;15.65;87.89
71254;HTU21D;59019;47.638;18.966;2023-06-14T04:58:11;15.96;87.38
71254;HTU21D;59019;47.638;18.966;2023-06-14T05:00:59;16.24;86.55
71254;HTU21D;59019;47.638;18.966;2023-06-14T05:03:45;16.55;86.19
71254;HTU21D;59019;47.638;18.966;2023-06-14T05:06:34;16.95;85.54
71254;HTU21D;59019;47.638;18.966;2023-06-14T05:09:20;17.28;83.38
71254;HTU21D;59019;47.638;18.966;2023-06-14T05:12:06;17.60;81.84
71254;HTU21D;59019;47.638;18.966;2023-06-14T05:14:55;17.83;81.12
71254;HTU21D;59019;47.638;18.966;2023-06-14T05:17:46;18.08;81.38
71254;HTU21D;59019;47.638;18.966;2023-06-14T05:20:38;18.29;79.46
71254;HTU21D;59019;47.638;18.966;2023-06-14T05:23:24;18.49;79.55
71254;HTU21D;59019;47.638;18.966;2023-06-14T05:26:10;18.72;79.88
71254;HTU21D;59019;47.638;18.966;2023-06-14T05:28:57;18.97;78.11
71254;HTU21D;59019;47.638;18.966;2023-06-14T05:31:43;19.07;78.14
71254;HTU21D;59019;47.638;18.966;2023-06-14T05:34:29;19.24;76.92
71254;HTU21D;59019;47.638;18.966;2023-06-14T05:37:15;19.47;76.82
71254;HTU21D;59019;47.638;18.966;2023-06-14T05:40:02;19.31;76.24
71254;HTU21D;59019;47.638;18.966;2023-06-14T05:42:50;19.57;76.45
71254;HTU21D;59019;47.638;18.966;2023-06-14T05:45:37;19.85;76.17
71254;HTU21D;59019;47.638;18.966;2023-06-14T05:48:22;20.12;74.41
71254;HTU21D;59019;47.638;18.966;2023-06-14T05:51:08;20.26;74.76
71254;HTU21D;59019;47.638;18.966;2023-06-14T05:53:55;20.51;73.93
71254;HTU21D;59019;47.638;18.966;2023-06-14T05:56:41;20.63;73.61
71254;HTU21D;59019;47.638;18.966;2023-06-14T05:59:27;20.78;73.00
71254;HTU21D;59019;47.638;18.966;2023-06-14T06:02:13;20.99;71.91
71254;HTU21D;59019;47.638;18.966;2023-06-14T06:04:59;21.20;72.00
71254;HTU21D;59019;47.638;18.966;2023-06-14T06:07:45;21.47;71.06
71254;HTU21D;59019;47.638;18.966;2023-06-14T06:10:31;21.58;71.03
71254;HTU21D;59019;47.638;18.966;2023-06-14T06:13:17;21.14;71.32
71254;HTU21D;59019;47.638;18.966;2023-06-14T06:16:03;20.75;71.90
71254;HTU21D;59019;47.638;18.966;2023-06-14T06:18:50;20.46;72.97
71254;HTU21D;59019;47.638;18.966;2023-06-14T06:21:36;20.29;74.02
71254;HTU21D;59019;47.638;18.966;2023-06-14T06:24:22;20.22;74.69
71254;HTU21D;59019;47.638;18.966;2023-06-14T06:27:08;20.13;74.94
71254;HTU21D;59019;47.638;18.966;2023-06-14T06:29:54;20.45;75.22
71254;HTU21D;59019;47.638;18.966;2023-06-14T06:32:39;20.60;73.40
71254;HTU21D;59019;47.638;18.966;2023-06-14T06:35:25;20.61;74.30
71254;HTU21D;59019;47.638;18.966;2023-06-14T06:38:11;20.84;73.67
71254;HTU21D;59019;47.638;18.966;2023-06-14T06:40:57;21.35;71.85
71254;HTU21D;59019;47.638;18.966;2023-06-14T06:43:43;21.25;71.32
71254;HTU21D;59019;47.638;18.966;2023-06-14T06:46:29;20.98;71.95
71254;HTU21D;59019;47.638;18.966;2023-06-14T06:49:14;20.79;72.19
71254;HTU21D;59019;47.638;18.966;2023-06-14T06:52:05;20.68;72.97
71254;HTU21D;59019;47.638;18.966;2023-06-14T06:54:52;20.46;73.98
71254;HTU21D;59019;47.638;18.966;2023-06-14T06:57:40;19.97;74.89
71254;HTU21D;59019;47.638;18.966;2023-06-14T07:00:26;19.83;75.37
71254;HTU21D;59019;47.638;18.966;2023-06-14T07:03:12;20.44;75.60
71254;HTU21D;59019;47.638;18.966;2023-06-14T07:05:58;21.29;73.94
71254;HTU21D;59019;47.638;18.966;2023-06-14T07:08:44;21.92;70.50
71254;HTU21D;59019;47.638;18.966;2023-06-14T07:11:30;22.52;68.97
71254;HTU21D;59019;47.638;18.966;2023-06-14T07:14:16;23.18;67.63
71254;HTU21D;59019;47.638;18.966;2023-06-14T07:17:02;22.26;68.40
71254;HTU21D;59019;47.638;18.966;2023-06-14T07:19:48;22.91;68.57
71254;HTU21D;59019;47.638;18.966;2023-06-14T07:22:34;23.71;66.81
71254;HTU21D;59019;47.638;18.966;2023-06-14T07:25:20;24.41;63.86
71254;HTU21D;59019;47.638;18.966;2023-06-14T07:28:05;24.65;63.70
71254;HTU21D;59019;47.638;18.966;2023-06-14T07:30:52;24.89;63.46
71254;HTU21D;59019;47.638;18.966;2023-06-14T07:33:38;24.95;62.64
71254;HTU21D;59019;47.638;18.966;2023-06-14T07:36:24;25.62;62.25
71254;HTU21D;59019;47.638;18.966;2023-06-14T07:39:10;25.57;59.95
71254;HTU21D;59019;47.638;18.966;2023-06-14T07:41:56;25.45;61.12
71254;HTU21D;59019;47.638;18.966;2023-06-14T07:44:42;25.31;60.93
71254;HTU21D;59019;47.638;18.966;2023-06-14T07:47:27;25.36;62.00
71254;HTU21D;59019;47.638;18.966;2023-06-14T07:50:13;26.12;59.86
71254;HTU21D;59019;47.638;18.966;2023-06-14T07:52:59;26.73;58.74
71254;HTU21D;59019;47.638;18.966;2023-06-14T07:55:45;27.00;56.26
71254;HTU21D;59019;47.638;18.966;2023-06-14T07:58:33;27.08;56.78
71254;HTU21D;59019;47.638;18.966;2023-06-14T08:01:18;27.44;55.06
71254;HTU21D;59019;47.638;18.966;2023-06-14T08:04:05;27.15;55.91
71254;HTU21D;59019;47.638;18.966;2023-06-14T08:06:51;26.80;56.50
71254;HTU21D;59019;47.638;18.966;2023-06-14T08:09:37;26.35;58.01
71254;HTU21D;59019;47.638;18.966;2023-06-14T08:12:26;25.99;59.64
71254;HTU21D;59019;47.638;18.966;2023-06-14T08:15:12;25.04;60.10
71254;HTU21D;59019;47.638;18.966;2023-06-14T08:17:58;25.13;60.06
71254;HTU21D;59019;47.638;18.966;2023-06-14T08:20:46;24.79;60.51
71254;HTU21D;59019;47.638;18.966;2023-06-14T08:23:31;24.30;62.58
71254;HTU21D;59019;47.638;18.966;2023-06-14T08:26:17;24.34;63.00
71254;HTU21D;59019;47.638;18.966;2023-06-14T08:29:03;24.45;62.13
71254;HTU21D;59019;47.638;18.966;2023-06-14T08:31:49;24.18;61.36
71254;HTU21D;59019;47.638;18.966;2023-06-14T08:34:35;23.99;63.05
71254;HTU21D;59019;47.638;18.966;2023-06-14T08:37:21;24.21;62.92
71254;HTU21D;59019;47.638;18.966;2023-06-14T08:40:20;23.88;64.50
71254;HTU21D;59019;47.638;18.966;2023-06-14T08:43:07;24.08;63.27
71254;HTU21D;59019;47.638;18.966;2023-06-14T08:45:58;23.95;64.49
71254;HTU21D;59019;47.638;18.966;2023-06-14T08:48:46;24.24;63.44
71254;HTU21D;59019;47.638;18.966;2023-06-14T08:51:35;24.47;61.96
71254;HTU21D;59019;47.638;18.966;2023-06-14T08:54:22;24.30;62.97
71254;HTU21D;59019;47.638;18.966;2023-06-14T08:57:11;24.49;62.89
71254;HTU21D;59019;47.638;18.966;2023-06-14T09:00:02;24.35;62.65
71254;HTU21D;59019;47.638;18.966;2023-06-14T09:02:55;24.75;62.44
71254;HTU21D;59019;47.638;18.966;2023-06-14T09:05:43;24.24;62.13
71254;HTU21D;59019;47.638;18.966;2023-06-14T09:08:29;23.92;62.97
71254;HTU21D;59019;47.638;18.966;2023-06-14T09:11:18;24.10;63.39
71254;HTU21D;59019;47.638;18.966;2023-06-14T09:14:06;24.47;62.83
71254;HTU21D;59019;47.638;18.966;2023-06-14T09:16:53;24.59;62.41
71254;HTU21D;59019;47.638;18.966;2023-06-14T09:19:39;24.48;63.77
71254;HTU21D;59019;47.638;18.966;2023-06-14T09:22:25;24.04;62.84
71254;HTU21D;59019;47.638;18.966;2023-06-14T09:25:11;23.85;62.63
71254;HTU21D;59019;47.638;18.966;2023-06-14T09:28:07;23.87;63.20
71254;HTU21D;59019;47.638;18.966;2023-06-14T09:30:53;24.11;62.95
71254;HTU21D;59019;47.638;18.966;2023-06-14T09:33:50;25.21;61.54
71254;HTU21D;59019;47.638;18.966;2023-06-14T09:36:36;26.66;56.01
71254;HTU21D;59019;47.638;18.966;2023-06-14T09:39:23;26.92;54.56
71254;HTU21D;59019;47.638;18.966;2023-06-14T09:42:19;27.36;52.14
71254;HTU21D;59019;47.638;18.966;2023-06-14T09:45:05;27.61;52.57
71254;HTU21D;59019;47.638;18.966;2023-06-14T09:47:51;28.86;47.73
71254;HTU21D;59019;47.638;18.966;2023-06-14T09:50:39;28.87;45.13
71254;HTU21D;59019;47.638;18.966;2023-06-14T09:53:25;28.78;47.24
71254;HTU21D;59019;47.638;18.966;2023-06-14T09:56:12;28.19;48.79
71254;HTU21D;59019;47.638;18.966;2023-06-14T09:58:59;27.99;47.59
71254;HTU21D;59019;47.638;18.966;2023-06-14T10:01:46;28.12;47.59
71254;HTU21D;59019;47.638;18.966;2023-06-14T10:04:33;27.94;48.88
71254;HTU21D;59019;47.638;18.966;2023-06-14T10:07:20;26.91;49.14
71254;HTU21D;59019;47.638;18.966;2023-06-14T10:10:07;26.48;50.09
71254;HTU21D;59019;47.638;18.966;2023-06-14T10:12:53;26.06;50.00
71254;HTU21D;59019;47.638;18.966;2023-06-14T10:15:59;25.72;51.46
71254;HTU21D;59019;47.638;18.966;2023-06-14T10:19:13;25.15;52.46
71254;HTU21D;59019;47.638;18.966;2023-06-14T10:22:06;24.83;55.19
71254;HTU21D;59019;47.638;18.966;2023-06-14T10:24:53;24.50;57.33
71254;HTU21D;59019;47.638;18.966;2023-06-14T10:27:44;24.29;59.02
71254;HTU21D;59019;47.638;18.966;2023-06-14T10:30:31;24.03;60.24
71254;HTU21D;59019;47.638;18.966;2023-06-14T10:33:17;23.76;60.18
71254;HTU21D;59019;47.638;18.966;2023-06-14T10:36:10;23.70;61.02
71254;HTU21D;59019;47.638;18.966;2023-06-14T10:39:14;23.79;61.49
71254;HTU21D;59019;47.638;18.966;2023-06-14T10:42:02;23.85;61.32
71254;HTU21D;59019;47.638;18.966;2023-06-14T10:44:50;23.85;61.67
71254;HTU21D;59019;47.638;18.966;2023-06-14T10:47:41;23.77;61.48
71254;HTU21D;59019;47.638;18.966;2023-06-14T10:50:29;23.74;60.41
71254;HTU21D;59019;47.638;18.966;2023-06-14T10:53:22;23.83;60.38
71254;HTU21D;59019;47.638;18.966;2023-06-14T10:56:08;23.74;60.42
71254;HTU21D;59019;47.638;18.966;2023-06-14T10:58:57;24.13;60.35
71254;HTU21D;59019;47.638;18.966;2023-06-14T11:04:52;25.10;59.31
71254;HTU21D;59019;47.638;18.966;2023-06-14T11:10:41;25.47;57.39
71254;HTU21D;59019;47.638;18.966;2023-06-14T11:13:27;25.39;58.81
71254;HTU21D;59019;47.638;18.966;2023-06-14T11:16:16;25.43;58.09
71254;HTU21D;59019;47.638;18.966;2023-06-14T11:19:02;25.29;58.77
71254;HTU21D;59019;47.638;18.966;2023-06-14T11:21:51;25.01;58.47
71254;HTU21D;59019;47.638;18.966;2023-06-14T11:24:37;25.67;56.63
71254;HTU21D;59019;47.638;18.966;2023-06-14T11:27:23;26.41;56.10
71254;HTU21D;59019;47.638;18.966;2023-06-14T11:30:13;27.14;53.51
71254;HTU21D;59019;47.638;18.966;2023-06-14T11:32:59;27.57;52.83
71254;HTU21D;59019;47.638;18.966;2023-06-14T11:35:45;28.03;50.78
71254;HTU21D;59019;47.638;18.966;2023-06-14T11:38:35;28.25;49.27
71254;HTU21D;59019;47.638;18.966;2023-06-14T11:41:24;28.39;48.23
71254;HTU21D;59019;47.638;18.966;2023-06-14T11:44:11;27.45;48.66
71254;HTU21D;59019;47.638;18.966;2023-06-14T11:46:57;28.20;46.15
71254;HTU21D;59019;47.638;18.966;2023-06-14T11:49:43;28.20;41.49
71254;HTU21D;59019;47.638;18.966;2023-06-14T11:52:29;28.52;43.84
71254;HTU21D;59019;47.638;18.966;2023-06-14T11:55:15;28.08;44.01
71254;HTU21D;59019;47.638;18.966;2023-06-14T11:58:01;28.49;42.32
71254;HTU21D;59019;47.638;18.966;2023-06-14T12:00:49;28.76;41.33
71254;HTU21D;59019;47.638;18.966;2023-06-14T12:03:35;29.34;39.48
71254;HTU21D;59019;47.638;18.966;2023-06-14T12:06:29;29.14;38.10
71254;HTU21D;59019;47.638;18.966;2023-06-14T12:09:18;29.61;38.59
71254;HTU21D;59019;47.638;18.966;2023-06-14T12:12:05;29.70;40.33
71254;HTU21D;59019;47.638;18.966;2023-06-14T12:14:53;29.65;40.20
71254;HTU21D;59019;47.638;18.966;2023-06-14T12:17:39;29.60;41.61
71254;HTU21D;59019;47.638;18.966;2023-06-14T12:20:29;30.09;41.81
71254;HTU21D;59019;47.638;18.966;2023-06-14T12:23:16;29.89;41.49
71254;HTU21D;59019;47.638;18.966;2023-06-14T12:26:03;30.19;41.43
71254;HTU21D;59019;47.638;18.966;2023-06-14T12:28:51;29.87;40.02
71254;HTU21D;59019;47.638;18.966;2023-06-14T12:31:37;29.29;39.96
71254;HTU21D;59019;47.638;18.966;2023-06-14T12:34:26;29.59;39.56
71254;HTU21D;59019;47.638;18.966;2023-06-14T12:37:12;29.43;37.07
71254;HTU21D;59019;47.638;18.966;2023-06-14T12:39:58;29.46;36.92
71254;HTU21D;59019;47.638;18.966;2023-06-14T12:42:45;29.53;38.50
71254;HTU21D;59019;47.638;18.966;2023-06-14T12:45:34;28.98;41.80
71254;HTU21D;59019;47.638;18.966;2023-06-14T12:48:20;28.69;43.75
71254;HTU21D;59019;47.638;18.966;2023-06-14T12:51:06;28.85;44.09
71254;HTU21D;59019;47.638;18.966;2023-06-14T12:53:52;29.42;42.52
71254;HTU21D;59019;47.638;18.966;2023-06-14T12:56:38;29.30;41.27
71254;HTU21D;59019;47.638;18.966;2023-06-14T12:59:24;29.33;40.88
71254;HTU21D;59019;47.638;18.966;2023-06-14T13:02:15;28.64;42.31
71254;HTU21D;59019;47.638;18.966;2023-06-14T13:05:01;28.43;43.18
71254;HTU21D;59019;47.638;18.966;2023-06-14T13:07:49;28.23;43.87
71254;HTU21D;59019;47.638;18.966;2023-06-14T13:10:36;28.25;43.54
71254;HTU21D;59019;47.638;18.966;2023-06-14T13:13:22;27.88;44.22
71254;HTU21D;59019;47.638;18.966;2023-06-14T13:16:08;28.09;45.09
71254;HTU21D;59019;47.638;18.966;2023-06-14T13:18:54;28.21;43.67
71254;HTU21D;59019;47.638;18.966;2023-06-14T13:21:40;28.05;43.94
71254;HTU21D;59019;47.638;18.966;2023-06-14T13:24:27;27.94;44.10
71254;HTU21D;59019;47.638;18.966;2023-06-14T13:27:15;28.00;45.28
71254;HTU21D;59019;47.638;18.966;2023-06-14T13:30:01;27.82;45.74
71254;HTU21D;59019;47.638;18.966;2023-06-14T13:32:47;28.10;44.83
71254;HTU21D;59019;47.638;18.966;2023-06-14T13:35:33;28.14;46.51
71254;HTU21D;59019;47.638;18.966;2023-06-14T13:38:19;28.34;44.94
71254;HTU21D;59019;47.638;18.966;2023-06-14T13:41:06;28.39;42.90
71254;HTU21D;59019;47.638;18.966;2023-06-14T13:43:52;27.91;43.42
71254;HTU21D;59019;47.638;18.966;2023-06-14T13:46:38;27.89;43.35
71254;HTU21D;59019;47.638;18.966;2023-06-14T13:49:24;27.85;43.47
71254;HTU21D;59019;47.638;18.966;2023-06-14T13:52:09;27.36;44.32
71254;HTU21D;59019;47.638;18.966;2023-06-14T13:54:57;27.29;45.05
71254;HTU21D;59019;47.638;18.966;2023-06-14T13:57:42;27.47;44.19
71254;HTU21D;59019;47.638;18.966;2023-06-14T14:00:29;27.51;44.00
71254;HTU21D;59019;47.638;18.966;2023-06-14T14:03:15;27.58;44.44
71254;HTU21D;59019;47.638;18.966;2023-06-14T14:06:01;27.65;43.98
71254;HTU21D;59019;47.638;18.966;2023-06-14T14:08:47;27.94;44.58
71254;HTU21D;59019;47.638;18.966;2023-06-14T14:11:33;28.34;42.87
71254;HTU21D;59019;47.638;18.966;2023-06-14T14:14:19;28.38;43.93
71254;HTU21D;59019;47.638;18.966;2023-06-14T14:17:06;28.37;43.34
71254;HTU21D;59019;47.638;18.966;2023-06-14T14:19:52;28.20;43.48
71254;HTU21D;59019;47.638;18.966;2023-06-14T14:22:38;27.89;44.00
71254;HTU21D;59019;47.638;18.966;2023-06-14T14:25:24;27.70;46.37
71254;HTU21D;59019;47.638;18.966;2023-06-14T14:28:09;28.03;44.35
71254;HTU21D;59019;47.638;18.966;2023-06-14T14:30:56;28.15;44.58
71254;HTU21D;59019;47.638;18.966;2023-06-14T14:33:42;27.26;46.14
71254;HTU21D;59019;47.638;18.966;2023-06-14T14:36:28;26.93;47.66
71254;HTU21D;59019;47.638;18.966;2023-06-14T14:39:14;27.31;48.18
71254;HTU21D;59019;47.638;18.966;2023-06-14T14:42:00;27.68;46.37
71254;HTU21D;59019;47.638;18.966;2023-06-14T14:44:46;27.27;46.84
71254;HTU21D;59019;47.638;18.966;2023-06-14T14:47:31;27.05;48.58
71254;HTU21D;59019;47.638;18.966;2023-06-14T14:50:17;27.29;48.68
71254;HTU21D;59019;47.638;18.966;2023-06-14T14:53:04;27.01;48.28
71254;HTU21D;59019;47.638;18.966;2023-06-14T14:55:50;26.56;47.54
71254;HTU21D;59019;47.638;18.966;2023-06-14T14:58:36;25.89;49.41
71254;HTU21D;59019;47.638;18.966;2023-06-14T15:01:22;25.57;51.36
71254;HTU21D;59019;47.638;18.966;2023-06-14T15:04:08;25.22;51.16
71254;HTU21D;59019;47.638;18.966;2023-06-14T15:06:53;24.97;52.87
71254;HTU21D;59019;47.638;18.966;2023-06-14T15:09:39;24.79;54.01
71254;HTU21D;59019;47.638;18.966;2023-06-14T15:12:26;24.77;54.63
71254;HTU21D;59019;47.638;18.966;2023-06-14T15:15:12;24.82;54.13
71254;HTU21D;59019;47.638;18.966;2023-06-14T15:17:58;24.78;54.98
71254;HTU21D;59019;47.638;18.966;2023-06-14T15:20:44;24.59;53.21
71254;HTU21D;59019;47.638;18.966;2023-06-14T15:23:31;24.36;54.66
71254;HTU21D;59019;47.638;18.966;2023-06-14T15:26:17;24.33;54.81
71254;HTU21D;59019;47.638;18.966;2023-06-14T15:29:03;24.27;54.45
71254;HTU21D;59019;47.638;18.966;2023-06-14T15:31:48;24.17;53.80
71254;HTU21D;59019;47.638;18.966;2023-06-14T15:34:34;23.94;55.23
71254;HTU21D;59019;47.638;18.966;2023-06-14T15:37:22;23.88;55.45
71254;HTU21D;59019;47.638;18.966;2023-06-14T15:40:08;23.65;55.81
71254;HTU21D;59019;47.638;18.966;2023-06-14T15:42:54;23.47;56.53
71254;HTU21D;59019;47.638;18.966;2023-06-14T15:45:40;23.47;56.71
71254;HTU21D;59019;47.638;18.966;2023-06-14T15:48:29;23.55;56.40
71254;HTU21D;59019;47.638;18.966;2023-06-14T15:51:15;23.45;57.42
71254;HTU21D;59019;47.638;18.966;2023-06-14T15:54:02;23.73;57.10
71254;HTU21D;59019;47.638;18.966;2023-06-14T15:56:48;23.86;57.22
71254;HTU21D;59019;47.638;18.966;2023-06-14T15:59:33;23.98;55.34
71254;HTU21D;59019;47.638;18.966;2023-06-14T16:02:20;24.01;55.25
71254;HTU21D;59019;47.638;18.966;2023-06-14T16:05:06;23.98;54.02
71254;HTU21D;59019;47.638;18.966;2023-06-14T16:07:52;23.72;54.71
71254;HTU21D;59019;47.638;18.966;2023-06-14T16:10:38;23.81;56.14
71254;HTU21D;59019;47.638;18.966;2023-06-14T16:13:24;23.83;55.85
71254;HTU21D;59019;47.638;18.966;2023-06-14T16:16:10;23.75;55.76
71254;HTU21D;59019;47.638;18.966;2023-06-14T16:18:55;23.67;55.79
71254;HTU21D;59019;47.638;18.966;2023-06-14T16:21:41;23.51;55.87
71254;HTU21D;59019;47.638;18.966;2023-06-14T16:24:27;23.38;56.56
71254;HTU21D;59019;47.638;18.966;2023-06-14T16:27:13;23.31;58.11
71254;HTU21D;59019;47.638;18.966;2023-06-14T16:30:00;23.13;60.18
71254;HTU21D;59019;47.638;18.966;2023-06-14T16:32:46;23.03;62.13
71254;HTU21D;59019;47.638;18.966;2023-06-14T16:35:32;22.90;62.81
71254;HTU21D;59019;47.638;18.966;2023-06-14T16:38:18;22.92;63.57
71254;HTU21D;59019;47.638;18.966;2023-06-14T16:41:06;22.86;65.24
71254;HTU21D;59019;47.638;18.966;2023-06-14T16:43:52;22.91;64.37
71254;HTU21D;59019;47.638;18.966;2023-06-14T16:46:37;23.08;64.44
71254;HTU21D;59019;47.638;18.966;2023-06-14T16:49:23;23.27;63.47
71254;HTU21D;59019;47.638;18.966;2023-06-14T16:52:09;23.17;64.05
71254;HTU21D;59019;47.638;18.966;2023-06-14T16:54:55;22.93;65.35
71254;HTU21D;59019;47.638;18.966;2023-06-14T16:57:41;22.82;66.11
71254;HTU21D;59019;47.638;18.966;2023-06-14T17:00:26;22.60;67.97
71254;HTU21D;59019;47.638;18.966;2023-06-14T17:03:12;22.37;69.13
71254;HTU21D;59019;47.638;18.966;2023-06-14T17:05:58;22.24;71.32
71254;HTU21D;59019;47.638;18.966;2023-06-14T17:08:44;21.92;72.16
71254;HTU21D;59019;47.638;18.966;2023-06-14T17:11:30;21.74;71.51